sensor_id;sensor_type;location;lat;lon;timestamp;P1;durP1;ratioP1;P2;durP2;ratioP2
71759;SDS011;59919;48.112;16.280;2022-09-29T00:01:49;0.95;;;0.47;;
71759;SDS011;59919;48.112;16.280;2022-09-29T00:07:34;0.50;;;0.30;;
71759;SDS011;59919;48.112;16.280;2022-09-29T00:10:25;0.57;;;0.40;;
71759;SDS011;59919;48.112;16.280;2022-09-29T00:13:17;0.60;;;0.50;;
71759;SDS011;59919;48.112;16.280;2022-09-29T00:16:11;0.77;;;0.40;;
71759;SDS011;59919;48.112;16.280;2022-09-29T00:19:06;0.60;;;0.40;;
71759;SDS011;59919;48.112;16.280;2022-09-29T00:21:58;0.65;;;0.55;;
71759;SDS011;59919;48.112;16.280;2022-09-29T00:24:49;0.60;;;0.40;;
71759;SDS011;59919;48.112;16.280;2022-09-29T00:27:40;0.80;;;0.40;;
71759;SDS011;59919;48.112;16.280;2022-09-29T00:30:32;0.50;;;0.35;;
71759;SDS011;59919;48.112;16.280;2022-09-29T00:33:23;1.17;;;0.50;;
71759;SDS011;59919;48.112;16.280;2022-09-29T00:36:15;0.68;;;0.40;;
71759;SDS011;59919;48.112;16.280;2022-09-29T00:39:13;0.88;;;0.60;;
71759;SDS011;59919;48.112;16.280;2022-09-29T00:42:08;0.60;;;0.45;;
71759;SDS011;59919;48.112;16.280;2022-09-29T00:45:11;0.40;;;0.40;;
71759;SDS011;59919;48.112;16.280;2022-09-29T00:48:08;0.52;;;0.40;;
71759;SDS011;59919;48.112;16.280;2022-09-29T00:51:04;1.63;;;0.45;;
71759;SDS011;59919;48.112;16.280;2022-09-29T00:54:00;0.88;;;0.47;;
71759;SDS011;59919;48.112;16.280;2022-09-29T00:56:52;0.90;;;0.50;;
71759;SDS011;59919;48.112;16.280;2022-09-29T00:59:47;0.88;;;0.40;;
71759;SDS011;59919;48.112;16.280;2022-09-29T01:02:56;0.80;;;0.40;;
71759;SDS011;59919;48.112;16.280;2022-09-29T01:05:58;0.43;;;0.35;;
71759;SDS011;59919;48.112;16.280;2022-09-29T01:08:58;0.80;;;0.40;;
71759;SDS011;59919;48.112;16.280;2022-09-29T01:11:51;0.40;;;0.30;;
71759;SDS011;59919;48.112;16.280;2022-09-29T01:14:44;0.60;;;0.50;;
71759;SDS011;59919;48.112;16.280;2022-09-29T01:17:52;1.10;;;0.40;;
71759;SDS011;59919;48.112;16.280;2022-09-29T01:20:59;0.43;;;0.43;;
71759;SDS011;59919;48.112;16.280;2022-09-29T01:24:16;0.70;;;0.38;;
71759;SDS011;59919;48.112;16.280;2022-09-29T01:27:35;0.73;;;0.45;;
71759;SDS011;59919;48.112;16.280;2022-09-29T01:33:46;0.60;;;0.30;;
71759;SDS011;59919;48.112;16.280;2022-09-29T01:36:51;0.30;;;0.30;;
71759;SDS011;59919;48.112;16.280;2022-09-29T01:43:19;1.20;;;0.55;;
71759;SDS011;59919;48.112;16.280;2022-09-29T01:46:15;0.73;;;0.50;;
71759;SDS011;59919;48.112;16.280;2022-09-29T01:49:14;0.93;;;0.40;;
71759;SDS011;59919;48.112;16.280;2022-09-29T01:52:09;0.77;;;0.50;;
71759;SDS011;59919;48.112;16.280;2022-09-29T01:55:06;0.70;;;0.40;;
71759;SDS011;59919;48.112;16.280;2022-09-29T01:58:06;0.95;;;0.60;;
71759;SDS011;59919;48.112;16.280;2022-09-29T02:01:05;0.40;;;0.40;;
71759;SDS011;59919;48.112;16.280;2022-09-29T02:04:03;0.50;;;0.40;;
71759;SDS011;59919;48.112;16.280;2022-09-29T02:07:07;0.50;;;0.43;;
71759;SDS011;59919;48.112;16.280;2022-09-29T02:10:15;0.85;;;0.50;;
71759;SDS011;59919;48.112;16.280;2022-09-29T02:13:13;0.68;;;0.40;;
71759;SDS011;59919;48.112;16.280;2022-09-29T02:16:10;0.60;;;0.40;;
71759;SDS011;59919;48.112;16.280;2022-09-29T02:19:05;1.33;;;0.40;;
71759;SDS011;59919;48.112;16.280;2022-09-29T02:22:03;0.88;;;0.50;;
71759;SDS011;59919;48.112;16.280;2022-09-29T02:24:55;0.43;;;0.30;;
71759;SDS011;59919;48.112;16.280;2022-09-29T02:27:48;1.42;;;0.57;;
71759;SDS011;59919;48.112;16.280;2022-09-29T02:30:43;0.82;;;0.50;;
71759;SDS011;59919;48.112;16.280;2022-09-29T02:33:35;0.60;;;0.40;;
71759;SDS011;59919;48.112;16.280;2022-09-29T02:46:18;0.57;;;0.30;;
71759;SDS011;59919;48.112;16.280;2022-09-29T02:52:47;0.65;;;0.47;;
71759;SDS011;59919;48.112;16.280;2022-09-29T02:59:25;0.60;;;0.38;;
71759;SDS011;59919;48.112;16.280;2022-09-29T03:02:24;0.90;;;0.50;;
71759;SDS011;59919;48.112;16.280;2022-09-29T03:05:18;0.60;;;0.40;;
71759;SDS011;59919;48.112;16.280;2022-09-29T03:08:12;1.20;;;0.60;;
71759;SDS011;59919;48.112;16.280;2022-09-29T03:11:03;0.73;;;0.60;;
71759;SDS011;59919;48.112;16.280;2022-09-29T03:14:02;0.65;;;0.40;;
71759;SDS011;59919;48.112;16.280;2022-09-29T03:16:54;0.60;;;0.50;;
71759;SDS011;59919;48.112;16.280;2022-09-29T03:19:45;0.65;;;0.40;;
71759;SDS011;59919;48.112;16.280;2022-09-29T03:22:39;0.40;;;0.40;;
71759;SDS011;59919;48.112;16.280;2022-09-29T03:25:32;0.43;;;0.43;;
71759;SDS011;59919;48.112;16.280;2022-09-29T03:28:27;0.73;;;0.55;;
71759;SDS011;59919;48.112;16.280;2022-09-29T03:31:18;0.30;;;0.30;;
71759;SDS011;59919;48.112;16.280;2022-09-29T03:34:10;0.75;;;0.40;;
71759;SDS011;59919;48.112;16.280;2022-09-29T03:37:06;0.43;;;0.40;;
71759;SDS011;59919;48.112;16.280;2022-09-29T03:39:59;0.43;;;0.43;;
71759;SDS011;59919;48.112;16.280;2022-09-29T03:42:53;0.52;;;0.40;;
71759;SDS011;59919;48.112;16.280;2022-09-29T03:45:49;0.60;;;0.52;;
71759;SDS011;59919;48.112;16.280;2022-09-29T03:48:41;0.43;;;0.40;;
71759;SDS011;59919;48.112;16.280;2022-09-29T03:51:33;0.75;;;0.40;;
71759;SDS011;59919;48.112;16.280;2022-09-29T03:54:24;0.40;;;0.40;;
71759;SDS011;59919;48.112;16.280;2022-09-29T03:57:17;0.75;;;0.50;;
71759;SDS011;59919;48.112;16.280;2022-09-29T04:00:08;0.75;;;0.40;;
71759;SDS011;59919;48.112;16.280;2022-09-29T04:03:00;0.75;;;0.52;;
71759;SDS011;59919;48.112;16.280;2022-09-29T04:05:52;0.68;;;0.45;;
71759;SDS011;59919;48.112;16.280;2022-09-29T04:08:43;0.40;;;0.40;;
71759;SDS011;59919;48.112;16.280;2022-09-29T04:11:34;0.30;;;0.30;;
71759;SDS011;59919;48.112;16.280;2022-09-29T04:14:25;0.52;;;0.30;;
71759;SDS011;59919;48.112;16.280;2022-09-29T04:17:19;0.63;;;0.40;;
71759;SDS011;59919;48.112;16.280;2022-09-29T04:23:09;0.43;;;0.30;;
71759;SDS011;59919;48.112;16.280;2022-09-29T04:26:04;0.70;;;0.45;;
71759;SDS011;59919;48.112;16.280;2022-09-29T04:28:59;0.50;;;0.47;;
71759;SDS011;59919;48.112;16.280;2022-09-29T04:31:50;0.73;;;0.40;;
71759;SDS011;59919;48.112;16.280;2022-09-29T04:34:42;0.32;;;0.30;;
71759;SDS011;59919;48.112;16.280;2022-09-29T04:37:33;0.60;;;0.30;;
71759;SDS011;59919;48.112;16.280;2022-09-29T04:40:25;0.40;;;0.30;;
71759;SDS011;59919;48.112;16.280;2022-09-29T04:43:22;1.98;;;0.68;;
71759;SDS011;59919;48.112;16.280;2022-09-29T04:46:13;0.70;;;0.40;;
71759;SDS011;59919;48.112;16.280;2022-09-29T04:49:05;0.50;;;0.50;;
71759;SDS011;59919;48.112;16.280;2022-09-29T04:51:56;0.75;;;0.40;;
71759;SDS011;59919;48.112;16.280;2022-09-29T04:54:47;0.30;;;0.20;;
71759;SDS011;59919;48.112;16.280;2022-09-29T04:57:42;0.40;;;0.40;;
71759;SDS011;59919;48.112;16.280;2022-09-29T05:00:34;1.10;;;0.50;;
71759;SDS011;59919;48.112;16.280;2022-09-29T05:03:30;1.77;;;0.40;;
71759;SDS011;59919;48.112;16.280;2022-09-29T05:06:22;0.50;;;0.35;;
71759;SDS011;59919;48.112;16.280;2022-09-29T05:09:13;1.33;;;0.40;;
71759;SDS011;59919;48.112;16.280;2022-09-29T05:12:05;4.25;;;0.70;;
71759;SDS011;59919;48.112;16.280;2022-09-29T05:14:56;0.60;;;0.30;;
71759;SDS011;59919;48.112;16.280;2022-09-29T05:17:49;0.43;;;0.40;;
71759;SDS011;59919;48.112;16.280;2022-09-29T05:20:43;0.65;;;0.30;;
71759;SDS011;59919;48.112;16.280;2022-09-29T05:23:34;2.55;;;0.40;;
71759;SDS011;59919;48.112;16.280;2022-09-29T05:26:25;2.85;;;0.43;;
71759;SDS011;59919;48.112;16.280;2022-09-29T05:29:16;2.38;;;0.52;;
71759;SDS011;59919;48.112;16.280;2022-09-29T05:32:08;0.73;;;0.40;;
71759;SDS011;59919;48.112;16.280;2022-09-29T05:35:04;0.55;;;0.35;;
71759;SDS011;59919;48.112;16.280;2022-09-29T05:37:56;0.95;;;0.40;;
71759;SDS011;59919;48.112;16.280;2022-09-29T05:40:51;1.50;;;0.50;;
71759;SDS011;59919;48.112;16.280;2022-09-29T05:43:42;1.17;;;0.40;;
71759;SDS011;59919;48.112;16.280;2022-09-29T05:46:36;0.65;;;0.30;;
71759;SDS011;59919;48.112;16.280;2022-09-29T05:49:29;1.02;;;0.40;;
71759;SDS011;59919;48.112;16.280;2022-09-29T05:52:23;0.93;;;0.40;;
71759;SDS011;59919;48.112;16.280;2022-09-29T05:55:15;4.65;;;0.63;;
71759;SDS011;59919;48.112;16.280;2022-09-29T05:58:06;0.98;;;0.40;;
71759;SDS011;59919;48.112;16.280;2022-09-29T06:00:58;0.47;;;0.40;;
71759;SDS011;59919;48.112;16.280;2022-09-29T06:03:51;0.40;;;0.35;;
71759;SDS011;59919;48.112;16.280;2022-09-29T06:06:44;0.93;;;0.38;;
71759;SDS011;59919;48.112;16.280;2022-09-29T06:09:38;0.85;;;0.57;;
71759;SDS011;59919;48.112;16.280;2022-09-29T06:12:35;0.80;;;0.32;;
71759;SDS011;59919;48.112;16.280;2022-09-29T06:15:27;0.98;;;0.50;;
71759;SDS011;59919;48.112;16.280;2022-09-29T06:18:18;1.75;;;0.40;;
71759;SDS011;59919;48.112;16.280;2022-09-29T06:21:10;1.63;;;0.30;;
71759;SDS011;59919;48.112;16.280;2022-09-29T06:24:04;1.15;;;0.35;;
71759;SDS011;59919;48.112;16.280;2022-09-29T06:26:56;0.77;;;0.50;;
71759;SDS011;59919;48.112;16.280;2022-09-29T06:29:48;0.55;;;0.30;;
71759;SDS011;59919;48.112;16.280;2022-09-29T06:32:39;1.80;;;0.40;;
71759;SDS011;59919;48.112;16.280;2022-09-29T06:35:11;0.40;;;0.40;;
71759;SDS011;59919;48.112;16.280;2022-09-29T06:38:01;0.75;;;0.43;;
71759;SDS011;59919;48.112;16.280;2022-09-29T06:40:32;3.05;;;0.40;;
71759;SDS011;59919;48.112;16.280;2022-09-29T06:43:03;0.38;;;0.30;;
71759;SDS011;59919;48.112;16.280;2022-09-29T06:45:34;2.13;;;0.30;;
71759;SDS011;59919;48.112;16.280;2022-09-29T06:48:05;1.58;;;0.50;;
71759;SDS011;59919;48.112;16.280;2022-09-29T06:50:39;1.70;;;0.40;;
71759;SDS011;59919;48.112;16.280;2022-09-29T06:53:10;0.88;;;0.45;;
71759;SDS011;59919;48.112;16.280;2022-09-29T06:55:50;0.40;;;0.40;;
71759;SDS011;59919;48.112;16.280;2022-09-29T06:58:22;0.75;;;0.40;;
71759;SDS011;59919;48.112;16.280;2022-09-29T07:01:00;1.00;;;0.40;;
71759;SDS011;59919;48.112;16.280;2022-09-29T07:03:36;1.60;;;0.40;;
71759;SDS011;59919;48.112;16.280;2022-09-29T07:06:10;1.23;;;0.40;;
71759;SDS011;59919;48.112;16.280;2022-09-29T07:08:41;1.02;;;0.60;;
71759;SDS011;59919;48.112;16.280;2022-09-29T07:11:13;0.50;;;0.40;;
71759;SDS011;59919;48.112;16.280;2022-09-29T07:13:45;0.95;;;0.57;;
71759;SDS011;59919;48.112;16.280;2022-09-29T07:16:16;1.10;;;0.50;;
71759;SDS011;59919;48.112;16.280;2022-09-29T07:18:47;0.47;;;0.40;;
71759;SDS011;59919;48.112;16.280;2022-09-29T07:21:22;1.15;;;0.30;;
71759;SDS011;59919;48.112;16.280;2022-09-29T07:23:53;0.45;;;0.40;;
71759;SDS011;59919;48.112;16.280;2022-09-29T07:26:24;1.70;;;0.60;;
71759;SDS011;59919;48.112;16.280;2022-09-29T07:28:56;1.63;;;0.50;;
71759;SDS011;59919;48.112;16.280;2022-09-29T07:31:27;0.40;;;0.40;;
71759;SDS011;59919;48.112;16.280;2022-09-29T07:34:00;0.70;;;0.32;;
71759;SDS011;59919;48.112;16.280;2022-09-29T07:36:34;1.08;;;0.50;;
71759;SDS011;59919;48.112;16.280;2022-09-29T07:39:08;1.65;;;0.55;;
71759;SDS011;59919;48.112;16.280;2022-09-29T07:41:39;1.08;;;0.30;;
71759;SDS011;59919;48.112;16.280;2022-09-29T07:44:12;0.80;;;0.50;;
71759;SDS011;59919;48.112;16.280;2022-09-29T07:46:43;1.42;;;0.45;;
71759;SDS011;59919;48.112;16.280;2022-09-29T07:49:14;0.57;;;0.50;;
71759;SDS011;59919;48.112;16.280;2022-09-29T07:51:45;0.70;;;0.30;;
71759;SDS011;59919;48.112;16.280;2022-09-29T07:54:19;1.42;;;0.50;;
71759;SDS011;59919;48.112;16.280;2022-09-29T07:56:52;0.47;;;0.40;;
71759;SDS011;59919;48.112;16.280;2022-09-29T07:59:27;0.55;;;0.30;;
71759;SDS011;59919;48.112;16.280;2022-09-29T08:02:00;2.17;;;0.45;;
71759;SDS011;59919;48.112;16.280;2022-09-29T08:04:32;1.30;;;0.40;;
71759;SDS011;59919;48.112;16.280;2022-09-29T08:07:03;1.67;;;0.40;;
71759;SDS011;59919;48.112;16.280;2022-09-29T08:09:37;0.70;;;0.47;;
71759;SDS011;59919;48.112;16.280;2022-09-29T08:12:08;2.22;;;0.47;;
71759;SDS011;59919;48.112;16.280;2022-09-29T08:14:42;1.73;;;0.68;;
71759;SDS011;59919;48.112;16.280;2022-09-29T08:17:13;0.70;;;0.40;;
71759;SDS011;59919;48.112;16.280;2022-09-29T08:19:44;1.85;;;0.43;;
71759;SDS011;59919;48.112;16.280;2022-09-29T08:22:15;2.63;;;0.70;;
71759;SDS011;59919;48.112;16.280;2022-09-29T08:24:46;0.85;;;0.30;;
71759;SDS011;59919;48.112;16.280;2022-09-29T08:27:25;1.75;;;0.40;;
71759;SDS011;59919;48.112;16.280;2022-09-29T08:29:56;2.20;;;0.52;;
71759;SDS011;59919;48.112;16.280;2022-09-29T08:32:28;0.90;;;0.57;;
71759;SDS011;59919;48.112;16.280;2022-09-29T08:35:01;1.83;;;0.40;;
71759;SDS011;59919;48.112;16.280;2022-09-29T08:37:35;1.63;;;0.30;;
71759;SDS011;59919;48.112;16.280;2022-09-29T08:40:06;0.70;;;0.50;;
71759;SDS011;59919;48.112;16.280;2022-09-29T08:45:22;1.20;;;0.40;;
71759;SDS011;59919;48.112;16.280;2022-09-29T08:48:02;3.50;;;0.50;;
71759;SDS011;59919;48.112;16.280;2022-09-29T08:51:01;2.17;;;0.30;;
71759;SDS011;59919;48.112;16.280;2022-09-29T08:53:44;1.02;;;0.60;;
71759;SDS011;59919;48.112;16.280;2022-09-29T08:56:19;2.00;;;0.50;;
71759;SDS011;59919;48.112;16.280;2022-09-29T08:58:51;1.52;;;0.40;;
71759;SDS011;59919;48.112;16.280;2022-09-29T09:15:36;1.00;;;0.40;;
71759;SDS011;59919;48.112;16.280;2022-09-29T09:18:22;1.67;;;0.40;;
71759;SDS011;59919;48.112;16.280;2022-09-29T09:21:06;0.93;;;0.40;;
71759;SDS011;59919;48.112;16.280;2022-09-29T09:26:10;4.93;;;0.77;;
71759;SDS011;59919;48.112;16.280;2022-09-29T09:31:23;1.30;;;0.30;;
71759;SDS011;59919;48.112;16.280;2022-09-29T09:37:18;2.60;;;0.50;;
71759;SDS011;59919;48.112;16.280;2022-09-29T09:42:47;3.15;;;0.40;;
71759;SDS011;59919;48.112;16.280;2022-09-29T09:50:43;1.08;;;0.50;;
71759;SDS011;59919;48.112;16.280;2022-09-29T09:53:49;1.13;;;0.40;;
71759;SDS011;59919;48.112;16.280;2022-09-29T10:02:16;1.35;;;0.30;;
71759;SDS011;59919;48.112;16.280;2022-09-29T10:04:50;1.48;;;0.43;;
71759;SDS011;59919;48.112;16.280;2022-09-29T10:07:26;0.90;;;0.50;;
71759;SDS011;59919;48.112;16.280;2022-09-29T10:10:00;1.30;;;0.38;;
71759;SDS011;59919;48.112;16.280;2022-09-29T10:12:45;0.85;;;0.50;;
71759;SDS011;59919;48.112;16.280;2022-09-29T10:15:20;0.28;;;0.20;;
71759;SDS011;59919;48.112;16.280;2022-09-29T10:18:00;0.40;;;0.30;;
71759;SDS011;59919;48.112;16.280;2022-09-29T10:20:36;0.88;;;0.50;;
71759;SDS011;59919;48.112;16.280;2022-09-29T10:26:05;0.70;;;0.40;;
71759;SDS011;59919;48.112;16.280;2022-09-29T10:28:42;0.65;;;0.35;;
71759;SDS011;59919;48.112;16.280;2022-09-29T10:31:35;1.90;;;0.50;;
71759;SDS011;59919;48.112;16.280;2022-09-29T10:34:18;0.70;;;0.32;;
71759;SDS011;59919;48.112;16.280;2022-09-29T10:39:42;0.82;;;0.40;;
71759;SDS011;59919;48.112;16.280;2022-09-29T10:42:33;0.57;;;0.40;;
71759;SDS011;59919;48.112;16.280;2022-09-29T10:53:35;0.40;;;0.30;;
71759;SDS011;59919;48.112;16.280;2022-09-29T10:56:18;1.02;;;0.40;;
71759;SDS011;59919;48.112;16.280;2022-09-29T10:58:52;0.45;;;0.40;;
71759;SDS011;59919;48.112;16.280;2022-09-29T11:01:29;0.47;;;0.40;;
71759;SDS011;59919;48.112;16.280;2022-09-29T11:04:16;0.75;;;0.38;;
71759;SDS011;59919;48.112;16.280;2022-09-29T11:07:07;2.17;;;0.73;;
71759;SDS011;59919;48.112;16.280;2022-09-29T11:09:42;2.03;;;0.75;;
71759;SDS011;59919;48.112;16.280;2022-09-29T11:12:35;0.82;;;0.60;;
71759;SDS011;59919;48.112;16.280;2022-09-29T11:15:27;1.33;;;0.40;;
71759;SDS011;59919;48.112;16.280;2022-09-29T11:18:19;0.82;;;0.40;;
71759;SDS011;59919;48.112;16.280;2022-09-29T11:21:00;1.77;;;0.55;;
71759;SDS011;59919;48.112;16.280;2022-09-29T11:23:47;1.08;;;0.50;;
71759;SDS011;59919;48.112;16.280;2022-09-29T11:26:26;0.93;;;0.55;;
71759;SDS011;59919;48.112;16.280;2022-09-29T11:32:14;2.35;;;0.82;;
71759;SDS011;59919;48.112;16.280;2022-09-29T11:44:23;1.33;;;0.75;;
71759;SDS011;59919;48.112;16.280;2022-09-29T12:04:31;2.37;;;0.63;;
71759;SDS011;59919;48.112;16.280;2022-09-29T12:10:13;2.03;;;0.52;;
71759;SDS011;59919;48.112;16.280;2022-09-29T12:16:17;2.50;;;0.50;;
71759;SDS011;59919;48.112;16.280;2022-09-29T12:18:58;0.68;;;0.45;;
71759;SDS011;59919;48.112;16.280;2022-09-29T12:21:40;1.25;;;0.50;;
71759;SDS011;59919;48.112;16.280;2022-09-29T12:24:31;1.10;;;0.50;;
71759;SDS011;59919;48.112;16.280;2022-09-29T12:27:04;1.10;;;0.60;;
71759;SDS011;59919;48.112;16.280;2022-09-29T12:29:41;1.48;;;0.85;;
71759;SDS011;59919;48.112;16.280;2022-09-29T12:32:18;1.60;;;0.68;;
71759;SDS011;59919;48.112;16.280;2022-09-29T12:35:00;0.50;;;0.50;;
71759;SDS011;59919;48.112;16.280;2022-09-29T12:38:00;0.63;;;0.50;;
71759;SDS011;59919;48.112;16.280;2022-09-29T12:40:38;1.25;;;0.70;;
71759;SDS011;59919;48.112;16.280;2022-09-29T12:51:35;0.60;;;0.50;;
71759;SDS011;59919;48.112;16.280;2022-09-29T12:57:02;1.60;;;0.50;;
71759;SDS011;59919;48.112;16.280;2022-09-29T13:02:37;0.30;;;0.30;;
71759;SDS011;59919;48.112;16.280;2022-09-29T13:14:41;0.52;;;0.40;;
71759;SDS011;59919;48.112;16.280;2022-09-29T13:20:55;0.95;;;0.40;;
71759;SDS011;59919;48.112;16.280;2022-09-29T13:28:52;2.20;;;0.50;;
71759;SDS011;59919;48.112;16.280;2022-09-29T13:31:35;0.95;;;0.73;;
71759;SDS011;59919;48.112;16.280;2022-09-29T13:34:32;0.88;;;0.55;;
71759;SDS011;59919;48.112;16.280;2022-09-29T13:47:56;1.92;;;0.52;;
71759;SDS011;59919;48.112;16.280;2022-09-29T13:50:44;0.85;;;0.60;;
71759;SDS011;59919;48.112;16.280;2022-09-29T13:59:17;0.60;;;0.55;;
71759;SDS011;59919;48.112;16.280;2022-09-29T14:10:36;1.00;;;0.43;;
71759;SDS011;59919;48.112;16.280;2022-09-29T14:16:03;2.17;;;0.50;;
71759;SDS011;59919;48.112;16.280;2022-09-29T14:18:45;1.20;;;0.50;;
71759;SDS011;59919;48.112;16.280;2022-09-29T14:32:27;1.60;;;0.52;;
71759;SDS011;59919;48.112;16.280;2022-09-29T14:41:15;7.93;;;1.15;;
71759;SDS011;59919;48.112;16.280;2022-09-29T15:01:17;7.65;;;0.80;;
71759;SDS011;59919;48.112;16.280;2022-09-29T15:06:45;4.97;;;0.70;;
71759;SDS011;59919;48.112;16.280;2022-09-29T15:09:19;6.95;;;0.80;;
71759;SDS011;59919;48.112;16.280;2022-09-29T15:11:52;6.10;;;0.75;;
71759;SDS011;59919;48.112;16.280;2022-09-29T15:14:34;4.90;;;0.95;;
71759;SDS011;59919;48.112;16.280;2022-09-29T15:26:00;3.35;;;0.70;;
71759;SDS011;59919;48.112;16.280;2022-09-29T15:28:36;2.33;;;0.70;;
71759;SDS011;59919;48.112;16.280;2022-09-29T15:33:46;3.03;;;0.80;;
71759;SDS011;59919;48.112;16.280;2022-09-29T15:36:18;3.08;;;0.88;;
71759;SDS011;59919;48.112;16.280;2022-09-29T15:38:53;3.05;;;0.75;;
71759;SDS011;59919;48.112;16.280;2022-09-29T15:44:10;2.15;;;0.80;;
71759;SDS011;59919;48.112;16.280;2022-09-29T15:46:48;4.25;;;0.93;;
71759;SDS011;59919;48.112;16.280;2022-09-29T15:49:21;3.22;;;0.68;;
71759;SDS011;59919;48.112;16.280;2022-09-29T15:51:57;1.85;;;0.70;;
71759;SDS011;59919;48.112;16.280;2022-09-29T15:54:34;5.15;;;0.80;;
71759;SDS011;59919;48.112;16.280;2022-09-29T15:57:28;2.47;;;0.70;;
71759;SDS011;59919;48.112;16.280;2022-09-29T16:00:40;3.70;;;0.68;;
71759;SDS011;59919;48.112;16.280;2022-09-29T16:03:23;2.55;;;0.82;;
71759;SDS011;59919;48.112;16.280;2022-09-29T16:06:05;5.05;;;1.08;;
71759;SDS011;59919;48.112;16.280;2022-09-29T16:08:44;6.35;;;0.95;;
71759;SDS011;59919;48.112;16.280;2022-09-29T16:11:19;3.00;;;1.00;;
71759;SDS011;59919;48.112;16.280;2022-09-29T16:14:02;5.28;;;0.82;;
71759;SDS011;59919;48.112;16.280;2022-09-29T16:16:41;4.30;;;0.68;;
71759;SDS011;59919;48.112;16.280;2022-09-29T16:21:51;2.05;;;0.60;;
71759;SDS011;59919;48.112;16.280;2022-09-29T16:27:03;4.05;;;0.88;;
71759;SDS011;59919;48.112;16.280;2022-09-29T16:29:38;3.05;;;0.63;;
71759;SDS011;59919;48.112;16.280;2022-09-29T16:40:49;2.50;;;0.70;;
71759;SDS011;59919;48.112;16.280;2022-09-29T16:43:30;1.38;;;0.70;;
71759;SDS011;59919;48.112;16.280;2022-09-29T16:46:02;3.63;;;0.70;;
71759;SDS011;59919;48.112;16.280;2022-09-29T16:48:37;3.38;;;0.80;;
71759;SDS011;59919;48.112;16.280;2022-09-29T16:51:13;2.67;;;0.70;;
71759;SDS011;59919;48.112;16.280;2022-09-29T16:53:46;2.60;;;0.70;;
71759;SDS011;59919;48.112;16.280;2022-09-29T16:56:26;2.53;;;0.60;;
71759;SDS011;59919;48.112;16.280;2022-09-29T16:59:07;1.85;;;0.63;;
71759;SDS011;59919;48.112;16.280;2022-09-29T17:01:48;2.15;;;0.85;;
71759;SDS011;59919;48.112;16.280;2022-09-29T17:04:22;1.93;;;0.60;;
71759;SDS011;59919;48.112;16.280;2022-09-29T17:06:53;1.70;;;0.70;;
71759;SDS011;59919;48.112;16.280;2022-09-29T17:09:24;1.58;;;0.60;;
71759;SDS011;59919;48.112;16.280;2022-09-29T17:11:56;1.00;;;0.45;;
71759;SDS011;59919;48.112;16.280;2022-09-29T17:14:29;1.90;;;0.73;;
71759;SDS011;59919;48.112;16.280;2022-09-29T17:17:01;2.35;;;0.60;;
71759;SDS011;59919;48.112;16.280;2022-09-29T17:19:32;1.08;;;0.40;;
71759;SDS011;59919;48.112;16.280;2022-09-29T17:22:39;2.35;;;0.73;;
71759;SDS011;59919;48.112;16.280;2022-09-29T17:25:06;0.98;;;0.50;;
71759;SDS011;59919;48.112;16.280;2022-09-29T17:27:38;2.92;;;0.88;;
71759;SDS011;59919;48.112;16.280;2022-09-29T17:30:28;2.28;;;0.60;;
71759;SDS011;59919;48.112;16.280;2022-09-29T17:32:59;1.67;;;0.50;;
71759;SDS011;59919;48.112;16.280;2022-09-29T17:35:32;2.15;;;0.60;;
71759;SDS011;59919;48.112;16.280;2022-09-29T17:38:06;2.53;;;0.63;;
71759;SDS011;59919;48.112;16.280;2022-09-29T17:40:45;0.82;;;0.60;;
71759;SDS011;59919;48.112;16.280;2022-09-29T17:43:18;3.35;;;0.70;;
71759;SDS011;59919;48.112;16.280;2022-09-29T17:45:50;1.83;;;0.70;;
71759;SDS011;59919;48.112;16.280;2022-09-29T17:48:27;2.22;;;0.60;;
71759;SDS011;59919;48.112;16.280;2022-09-29T17:50:59;0.82;;;0.73;;
71759;SDS011;59919;48.112;16.280;2022-09-29T17:53:36;1.17;;;0.50;;
71759;SDS011;59919;48.112;16.280;2022-09-29T17:56:17;1.48;;;0.70;;
71759;SDS011;59919;48.112;16.280;2022-09-29T17:58:51;1.90;;;0.68;;
71759;SDS011;59919;48.112;16.280;2022-09-29T18:01:23;1.02;;;0.50;;
71759;SDS011;59919;48.112;16.280;2022-09-29T18:03:55;1.38;;;0.52;;
71759;SDS011;59919;48.112;16.280;2022-09-29T18:06:27;2.15;;;0.60;;
71759;SDS011;59919;48.112;16.280;2022-09-29T18:08:58;1.38;;;0.70;;
71759;SDS011;59919;48.112;16.280;2022-09-29T18:11:29;1.58;;;0.70;;
71759;SDS011;59919;48.112;16.280;2022-09-29T18:14:00;2.67;;;0.82;;
71759;SDS011;59919;48.112;16.280;2022-09-29T18:16:33;1.05;;;0.50;;
71759;SDS011;59919;48.112;16.280;2022-09-29T18:19:09;1.05;;;0.50;;
71759;SDS011;59919;48.112;16.280;2022-09-29T18:21:46;1.60;;;0.90;;
71759;SDS011;59919;48.112;16.280;2022-09-29T18:24:17;1.60;;;0.60;;
71759;SDS011;59919;48.112;16.280;2022-09-29T18:26:51;1.30;;;0.80;;
71759;SDS011;59919;48.112;16.280;2022-09-29T18:29:22;2.55;;;0.70;;
71759;SDS011;59919;48.112;16.280;2022-09-29T18:31:56;1.25;;;0.63;;
71759;SDS011;59919;48.112;16.280;2022-09-29T18:34:27;1.67;;;0.80;;
71759;SDS011;59919;48.112;16.280;2022-09-29T18:37:00;1.58;;;0.70;;
71759;SDS011;59919;48.112;16.280;2022-09-29T18:39:38;1.30;;;0.52;;
71759;SDS011;59919;48.112;16.280;2022-09-29T18:42:09;1.15;;;0.50;;
71759;SDS011;59919;48.112;16.280;2022-09-29T18:44:42;1.55;;;0.68;;
71759;SDS011;59919;48.112;16.280;2022-09-29T18:47:13;1.88;;;0.75;;
71759;SDS011;59919;48.112;16.280;2022-09-29T18:49:44;1.88;;;0.80;;
71759;SDS011;59919;48.112;16.280;2022-09-29T18:52:18;4.15;;;0.85;;
71759;SDS011;59919;48.112;16.280;2022-09-29T18:54:51;2.58;;;0.88;;
71759;SDS011;59919;48.112;16.280;2022-09-29T18:57:24;1.20;;;0.70;;
71759;SDS011;59919;48.112;16.280;2022-09-29T18:59:56;2.17;;;0.80;;
71759;SDS011;59919;48.112;16.280;2022-09-29T19:02:27;1.98;;;0.82;;
71759;SDS011;59919;48.112;16.280;2022-09-29T19:04:58;1.92;;;0.88;;
71759;SDS011;59919;48.112;16.280;2022-09-29T19:07:29;1.80;;;0.82;;
71759;SDS011;59919;48.112;16.280;2022-09-29T19:10:00;1.85;;;0.80;;
71759;SDS011;59919;48.112;16.280;2022-09-29T19:12:32;1.50;;;0.70;;
71759;SDS011;59919;48.112;16.280;2022-09-29T19:15:03;1.02;;;0.93;;
71759;SDS011;59919;48.112;16.280;2022-09-29T19:17:37;1.48;;;0.70;;
71759;SDS011;59919;48.112;16.280;2022-09-29T19:20:08;0.98;;;0.75;;
71759;SDS011;59919;48.112;16.280;2022-09-29T19:22:40;1.50;;;0.82;;
71759;SDS011;59919;48.112;16.280;2022-09-29T19:25:16;3.13;;;1.00;;
71759;SDS011;59919;48.112;16.280;2022-09-29T19:27:51;1.92;;;0.88;;
71759;SDS011;59919;48.112;16.280;2022-09-29T19:30:26;0.95;;;0.80;;
71759;SDS011;59919;48.112;16.280;2022-09-29T19:32:57;1.58;;;0.75;;
71759;SDS011;59919;48.112;16.280;2022-09-29T19:35:29;1.15;;;0.80;;
71759;SDS011;59919;48.112;16.280;2022-09-29T19:38:00;1.02;;;0.77;;
71759;SDS011;59919;48.112;16.280;2022-09-29T19:40:32;0.75;;;0.68;;
71759;SDS011;59919;48.112;16.280;2022-09-29T19:43:07;1.20;;;0.82;;
71759;SDS011;59919;48.112;16.280;2022-09-29T19:45:38;1.17;;;0.80;;
71759;SDS011;59919;48.112;16.280;2022-09-29T19:48:13;1.27;;;0.80;;
71759;SDS011;59919;48.112;16.280;2022-09-29T19:50:47;2.88;;;0.98;;
71759;SDS011;59919;48.112;16.280;2022-09-29T19:56:19;2.58;;;0.80;;
71759;SDS011;59919;48.112;16.280;2022-09-29T19:58:52;0.98;;;0.70;;
71759;SDS011;59919;48.112;16.280;2022-09-29T20:01:23;1.80;;;0.90;;
71759;SDS011;59919;48.112;16.280;2022-09-29T20:03:57;2.35;;;0.90;;
71759;SDS011;59919;48.112;16.280;2022-09-29T20:06:34;2.08;;;0.90;;
71759;SDS011;59919;48.112;16.280;2022-09-29T20:09:08;1.20;;;0.90;;
71759;SDS011;59919;48.112;16.280;2022-09-29T20:11:39;1.02;;;0.80;;
71759;SDS011;59919;48.112;16.280;2022-09-29T20:14:12;1.50;;;1.00;;